createdAt,value
2023-03-06T00:01:31.711Z,55.49
2023-03-06T00:03:58.654Z,55.89
2023-03-06T00:06:29.539Z,56.18
2023-03-06T00:08:56.331Z,55.47
2023-03-06T00:11:23.161Z,55.57
2023-03-06T00:13:50.502Z,55.53
2023-03-06T00:16:17.393Z,55.02
2023-03-06T00:21:35.531Z,54.90
2023-03-06T00:24:02.282Z,54.60
2023-03-06T00:26:29.130Z,54.28
2023-03-06T00:29:01.090Z,54.28
2023-03-06T00:31:27.951Z,53.91
2023-03-06T00:33:54.830Z,54.00
2023-03-06T00:36:21.670Z,53.58
2023-03-06T00:38:48.491Z,54.39
2023-03-06T00:41:15.309Z,54.11
2023-03-06T00:43:42.299Z,53.99
2023-03-06T00:46:12.091Z,53.96
2023-03-06T00:48:40.163Z,53.75
2023-03-06T00:51:07.087Z,53.43
2023-03-06T00:53:33.986Z,53.22
2023-03-06T00:56:02.031Z,52.80
2023-03-06T00:58:28.894Z,52.16
2023-03-06T01:01:23.205Z,51.99
2023-03-06T01:03:51.061Z,52.11
2023-03-06T01:06:18.800Z,51.91
2023-03-06T01:08:47.738Z,52.18
2023-03-06T01:11:15.059Z,51.94
2023-03-06T01:13:43.890Z,52.04
2023-03-06T01:16:13.738Z,51.94
2023-03-06T01:18:46.109Z,51.89
2023-03-06T01:21:13.710Z,52.03
2023-03-06T01:23:40.781Z,51.52
2023-03-06T01:26:08.218Z,52.55
2023-03-06T01:28:37.667Z,51.99
2023-03-06T01:31:05.518Z,51.71
2023-03-06T01:33:35.138Z,51.82
2023-03-06T01:36:09.840Z,51.70
2023-03-06T01:38:39.237Z,52.70
2023-03-06T01:41:06.793Z,52.06
2023-03-06T01:43:38.143Z,51.70
2023-03-06T01:46:27.046Z,51.89
2023-03-06T01:48:57.826Z,52.35
2023-03-06T01:51:32.047Z,52.53
2023-03-06T01:54:05.506Z,51.98
2023-03-06T01:56:32.533Z,51.59
2023-03-06T01:59:00.114Z,51.36
2023-03-06T02:01:27.279Z,51.94
2023-03-06T02:03:56.042Z,51.85
2023-03-06T02:06:22.960Z,51.91
2023-03-06T02:08:52.419Z,52.00
2023-03-06T02:11:24.723Z,52.21
2023-03-06T02:13:54.028Z,52.23
2023-03-06T02:16:27.165Z,51.92
2023-03-06T02:19:03.049Z,51.92
2023-03-06T02:21:36.331Z,51.09
2023-03-06T02:24:16.544Z,51.10
2023-03-06T02:26:45.393Z,51.35
2023-03-06T02:29:12.396Z,51.31
2023-03-06T02:31:39.433Z,51.81
2023-03-06T02:34:26.550Z,51.37
2023-03-06T02:37:00.819Z,50.80
2023-03-06T02:39:33.377Z,51.54
2023-03-06T02:42:28.053Z,52.69
2023-03-06T02:45:01.040Z,51.16
2023-03-06T02:47:54.051Z,51.38
2023-03-06T02:50:21.011Z,51.27
2023-03-06T02:52:48.851Z,51.40
2023-03-06T02:55:15.690Z,51.81
2023-03-06T02:58:10.066Z,51.41
2023-03-06T03:00:40.128Z,51.12
2023-03-06T03:03:10.020Z,51.20
2023-03-06T03:05:37.659Z,51.11
2023-03-06T03:08:13.059Z,50.96
2023-03-06T03:10:40.089Z,51.32
2023-03-06T03:13:07.170Z,51.36
2023-03-06T03:15:35.952Z,50.86
2023-03-06T03:18:06.749Z,51.10
2023-03-06T03:20:33.539Z,50.97
2023-03-06T03:23:00.615Z,51.09
2023-03-06T03:25:30.482Z,51.13
2023-03-06T03:27:58.218Z,51.09
2023-03-06T03:30:27.032Z,51.24
2023-03-06T03:32:56.273Z,50.89
2023-03-06T03:35:23.474Z,50.86
2023-03-06T03:37:50.543Z,51.19
2023-03-06T03:40:18.067Z,51.11
2023-03-06T03:42:44.798Z,51.06
2023-03-06T03:45:13.472Z,50.92
2023-03-06T03:47:41.599Z,50.91
2023-03-06T03:50:12.058Z,51.42
2023-03-06T03:52:39.995Z,51.20
2023-03-06T03:55:08.149Z,51.12
2023-03-06T03:57:37.642Z,50.84
2023-03-06T04:00:04.799Z,51.40
2023-03-06T04:02:40.616Z,53.81
2023-03-06T04:05:16.402Z,53.59
2023-03-06T04:07:44.327Z,54.99
2023-03-06T04:10:12.807Z,54.68
2023-03-06T04:12:43.112Z,54.57
2023-03-06T04:15:11.957Z,54.42
2023-03-06T04:17:40.708Z,55.33
2023-03-06T04:20:12.374Z,55.50
2023-03-06T04:22:39.700Z,54.87
2023-03-06T04:25:07.035Z,54.91
2023-03-06T04:27:37.541Z,54.59
2023-03-06T04:30:07.271Z,54.97
2023-03-06T04:32:36.861Z,54.99
2023-03-06T04:35:05.406Z,55.63
2023-03-06T04:37:41.323Z,56.08
2023-03-06T04:40:13.157Z,55.84
2023-03-06T04:42:40.349Z,56.11
2023-03-06T04:45:09.687Z,56.01
2023-03-06T04:47:36.658Z,56.35
2023-03-06T04:50:04.741Z,56.71
2023-03-06T04:52:31.683Z,56.16
2023-03-06T04:54:58.548Z,55.70
2023-03-06T04:57:27.168Z,54.84
2023-03-06T04:59:53.904Z,55.21
2023-03-06T05:02:23.517Z,55.52
2023-03-06T05:04:50.244Z,55.89
2023-03-06T05:07:17.062Z,55.50
2023-03-06T05:09:44.010Z,56.16
2023-03-06T05:12:11.588Z,56.42
2023-03-06T05:14:38.451Z,56.29
2023-03-06T05:17:05.302Z,56.68
2023-03-06T05:19:32.241Z,55.93
2023-03-06T05:21:58.979Z,56.84
2023-03-06T05:24:25.970Z,56.47
2023-03-06T05:26:52.870Z,56.28
2023-03-06T05:29:21.300Z,56.66
2023-03-06T05:31:52.014Z,58.36
2023-03-06T05:34:18.833Z,58.85
2023-03-06T05:36:48.275Z,59.64
2023-03-06T05:39:15.606Z,61.02
2023-03-06T05:41:42.341Z,60.53
2023-03-06T05:44:09.620Z,61.32
2023-03-06T05:46:36.580Z,61.20
2023-03-06T05:49:03.400Z,62.16
2023-03-06T05:51:31.528Z,62.34
2023-03-06T05:53:58.308Z,61.53
2023-03-06T05:56:25.188Z,62.11
2023-03-06T05:58:52.003Z,62.44
2023-03-06T06:01:22.398Z,62.60
2023-03-06T06:03:50.297Z,62.08
2023-03-06T06:06:42.041Z,62.70
2023-03-06T06:09:09.980Z,62.25
2023-03-06T06:11:37.779Z,63.63
2023-03-06T06:14:04.529Z,62.44
2023-03-06T06:16:34.167Z,62.16
2023-03-06T06:19:03.594Z,61.27
2023-03-06T06:21:31.333Z,62.40
2023-03-06T06:23:58.604Z,61.65
2023-03-06T06:26:25.408Z,61.92
2023-03-06T06:28:53.587Z,61.64
2023-03-06T06:31:21.226Z,62.31
2023-03-06T06:34:14.156Z,62.06
2023-03-06T06:36:44.936Z,62.39
2023-03-06T06:39:15.315Z,61.54
2023-03-06T06:42:00.299Z,62.26
2023-03-06T06:44:32.656Z,59.74
2023-03-06T06:47:21.850Z,60.48
2023-03-06T06:49:50.678Z,59.77
2023-03-06T06:52:17.788Z,60.82
2023-03-06T06:54:45.417Z,60.47
2023-03-06T06:57:12.895Z,60.23
2023-03-06T06:59:39.735Z,60.25
2023-03-06T07:02:06.622Z,61.98
2023-03-06T07:04:35.165Z,61.46
2023-03-06T07:07:27.269Z,62.59
2023-03-06T07:09:57.174Z,61.56
2023-03-06T07:12:24.688Z,60.20
2023-03-06T07:14:52.142Z,59.45
2023-03-06T07:17:19.004Z,59.50
2023-03-06T07:22:50.258Z,60.48
2023-03-06T07:25:20.240Z,60.44
2023-03-06T07:27:53.371Z,60.52
2023-03-06T07:30:23.435Z,62.06
2023-03-06T07:32:54.261Z,61.93
2023-03-06T07:35:21.522Z,60.73
2023-03-06T07:37:48.229Z,61.66
2023-03-06T07:40:19.750Z,61.81
2023-03-06T07:42:47.509Z,60.82
2023-03-06T07:45:17.787Z,60.14
2023-03-06T07:47:49.411Z,59.46
2023-03-06T07:50:16.723Z,60.03
2023-03-06T07:52:43.542Z,61.25
2023-03-06T07:55:11.758Z,60.20
2023-03-06T07:57:38.611Z,60.02
2023-03-06T08:00:08.485Z,59.10
2023-03-06T08:02:40.810Z,60.57
2023-03-06T08:05:17.178Z,60.36
2023-03-06T08:07:44.923Z,59.54
2023-03-06T08:10:15.979Z,59.18
2023-03-06T08:18:24.358Z,59.53
2023-03-06T08:20:51.139Z,59.89
2023-03-06T08:23:19.752Z,60.75
2023-03-06T08:25:46.516Z,59.68
2023-03-06T08:28:13.606Z,59.99
2023-03-06T08:30:42.404Z,58.61
2023-03-06T08:33:10.046Z,58.54
2023-03-06T08:35:36.914Z,58.53
2023-03-06T08:38:05.323Z,59.04
2023-03-06T08:40:32.077Z,58.05
2023-03-06T08:42:59.065Z,58.79
2023-03-06T08:45:25.914Z,58.26
2023-03-06T08:47:52.815Z,57.77
2023-03-06T08:50:19.669Z,57.96
2023-03-06T08:52:46.736Z,57.96
2023-03-06T08:55:15.085Z,58.05
2023-03-06T08:57:45.197Z,57.56
2023-03-06T09:00:16.871Z,58.35
2023-03-06T09:02:44.251Z,58.47
2023-03-06T09:05:11.486Z,59.12
2023-03-06T09:07:39.160Z,57.35
2023-03-06T09:10:06.370Z,57.24
2023-03-06T09:12:43.900Z,58.29
2023-03-06T09:15:19.044Z,58.63
2023-03-06T09:20:40.162Z,58.27
2023-03-06T09:23:06.873Z,56.81
2023-03-06T09:25:35.864Z,57.70
2023-03-06T09:28:11.413Z,56.95
2023-03-06T09:30:40.875Z,57.83
2023-03-06T09:33:09.330Z,56.49
2023-03-06T09:35:47.402Z,57.39
2023-03-06T09:41:32.327Z,57.41
2023-03-06T09:44:05.271Z,57.97
2023-03-06T09:46:43.727Z,58.08
2023-03-06T09:49:22.964Z,58.45
2023-03-06T09:51:57.346Z,57.71
2023-03-06T09:54:45.589Z,56.55
2023-03-06T09:57:45.253Z,57.06
2023-03-06T10:00:24.401Z,57.45
2023-03-06T10:03:16.043Z,57.99
2023-03-06T10:05:54.913Z,57.65
2023-03-06T10:08:47.308Z,57.92
2023-03-06T10:11:22.364Z,57.17
2023-03-06T10:14:08.287Z,56.82
2023-03-06T10:16:35.300Z,56.97
2023-03-06T10:19:05.191Z,57.22
2023-03-06T10:22:10.322Z,57.38
2023-03-06T10:24:58.865Z,57.70
2023-03-06T10:27:38.303Z,56.79
2023-03-06T10:30:58.854Z,57.27
2023-03-06T10:33:54.901Z,56.87
2023-03-06T10:36:24.860Z,57.69
2023-03-06T10:38:55.200Z,56.92
2023-03-06T10:41:48.902Z,57.76
2023-03-06T10:44:15.670Z,56.80
2023-03-06T10:46:45.949Z,56.49
2023-03-06T10:49:29.197Z,56.99
2023-03-06T10:52:13.940Z,56.82
2023-03-06T10:54:45.283Z,57.08
2023-03-06T10:57:25.799Z,57.35
2023-03-06T10:59:59.367Z,56.60
2023-03-06T11:02:26.187Z,57.57
2023-03-06T11:04:54.614Z,56.92
2023-03-06T11:07:25.993Z,57.31
2023-03-06T11:10:02.671Z,57.54
2023-03-06T11:12:38.439Z,57.17
2023-03-06T11:15:30.419Z,56.70
2023-03-06T11:18:24.121Z,56.06
2023-03-06T11:20:55.313Z,55.63
2023-03-06T11:23:44.619Z,56.29
2023-03-06T11:26:14.039Z,56.21
2023-03-06T11:28:53.315Z,56.58
2023-03-06T11:31:35.441Z,56.80
2023-03-06T11:34:15.261Z,56.28
2023-03-06T11:36:49.716Z,56.40
2023-03-06T11:39:31.749Z,56.63
2023-03-06T11:42:28.428Z,56.79
2023-03-06T11:45:16.608Z,56.83
2023-03-06T11:47:50.027Z,56.84
2023-03-06T11:50:21.832Z,56.13
2023-03-06T11:52:57.197Z,55.98
2023-03-06T11:55:53.171Z,56.60
2023-03-06T11:58:35.863Z,56.71
2023-03-06T12:01:11.465Z,56.59
2023-03-06T12:04:07.956Z,57.04
2023-03-06T12:07:20.218Z,56.53
2023-03-06T12:10:14.088Z,55.79
2023-03-06T12:16:03.126Z,57.21
2023-03-06T12:18:40.412Z,57.91
2023-03-06T12:21:12.829Z,56.91
2023-03-06T12:23:42.450Z,56.72
2023-03-06T12:26:28.138Z,56.77
2023-03-06T12:29:13.144Z,56.44
2023-03-06T12:31:53.607Z,57.20
2023-03-06T12:34:55.689Z,56.52
2023-03-06T12:37:43.879Z,56.60
2023-03-06T12:40:39.168Z,56.96
2023-03-06T12:43:29.290Z,56.31
2023-03-06T12:46:09.559Z,56.36
2023-03-06T12:48:40.097Z,57.04
2023-03-06T12:51:13.730Z,57.41
2023-03-06T12:53:41.910Z,56.36
2023-03-06T12:56:09.514Z,57.02
2023-03-06T12:58:48.292Z,56.12
2023-03-06T13:01:33.761Z,56.33
2023-03-06T13:04:38.167Z,56.58
2023-03-06T13:07:10.842Z,56.24
2023-03-06T13:10:12.688Z,57.14
2023-03-06T13:12:50.850Z,56.42
2023-03-06T13:15:20.467Z,56.27
2023-03-06T13:17:47.268Z,55.99
2023-03-06T13:20:14.029Z,56.60
2023-03-06T13:22:43.060Z,56.94
2023-03-06T13:25:18.625Z,55.82
2023-03-06T13:27:45.451Z,55.22
2023-03-06T13:30:21.582Z,55.61
2023-03-06T13:32:53.208Z,56.38
2023-03-06T13:35:32.274Z,56.57
2023-03-06T13:38:01.338Z,54.92
2023-03-06T13:40:35.626Z,55.00
2023-03-06T13:43:27.426Z,55.20
2023-03-06T13:45:54.376Z,56.14
2023-03-06T13:48:44.140Z,56.32
2023-03-06T13:51:23.746Z,56.53
2023-03-06T13:54:02.864Z,53.28
2023-03-06T13:56:41.009Z,53.74
2023-03-06T14:02:49.271Z,49.56
2023-03-06T14:05:18.041Z,47.59
2023-03-06T14:08:07.976Z,48.06
2023-03-06T14:10:36.673Z,47.38
2023-03-06T14:13:13.173Z,47.53
2023-03-06T14:15:49.449Z,47.36
2023-03-06T14:18:37.975Z,47.84
2023-03-06T14:21:07.179Z,47.99
2023-03-06T14:23:36.953Z,48.39
2023-03-06T14:26:11.446Z,49.20
2023-03-06T14:28:55.296Z,48.18
2023-03-06T14:31:31.459Z,48.04
2023-03-06T14:34:17.938Z,48.03
2023-03-06T14:36:49.905Z,48.21
2023-03-06T14:39:37.138Z,47.12
2023-03-06T14:42:19.629Z,48.07
2023-03-06T14:44:48.326Z,47.67
2023-03-06T14:47:17.844Z,46.63
2023-03-06T14:49:44.668Z,47.80
2023-03-06T14:52:19.532Z,46.84
2023-03-06T14:54:48.313Z,47.05
2023-03-06T14:57:19.434Z,46.81
2023-03-06T14:59:59.986Z,47.01
2023-03-06T15:02:30.639Z,47.26
2023-03-06T15:05:06.185Z,47.00
2023-03-06T15:07:33.991Z,46.98
2023-03-06T15:10:03.281Z,46.90
2023-03-06T15:12:34.672Z,47.07
2023-03-06T15:15:11.412Z,47.21
2023-03-06T15:17:43.362Z,46.77
2023-03-06T15:20:49.567Z,46.15
2023-03-06T15:23:35.900Z,46.44
2023-03-06T15:26:35.511Z,46.35
2023-03-06T15:29:09.919Z,46.73
2023-03-06T15:31:49.732Z,46.60
2023-03-06T15:34:19.894Z,46.93
2023-03-06T15:36:49.210Z,46.04
2023-03-06T15:39:39.756Z,46.25
2023-03-06T15:42:18.309Z,46.33
2023-03-06T15:44:51.157Z,46.16
2023-03-06T15:47:20.458Z,46.22
2023-03-06T15:49:47.602Z,46.99
2023-03-06T15:52:16.065Z,46.90
2023-03-06T15:54:44.502Z,47.09
2023-03-06T15:57:29.469Z,47.33
2023-03-06T15:59:58.643Z,47.68
2023-03-06T16:02:26.603Z,47.10
2023-03-06T16:04:53.812Z,47.59
2023-03-06T16:07:20.993Z,46.80
2023-03-06T16:09:47.934Z,47.02
2023-03-06T16:12:20.599Z,47.58
2023-03-06T16:14:49.242Z,47.83
2023-03-06T16:17:17.011Z,47.79
2023-03-06T16:19:44.754Z,47.78
2023-03-06T16:22:14.303Z,47.99
2023-03-06T16:24:42.841Z,48.49
2023-03-06T16:27:17.703Z,48.17
2023-03-06T16:29:45.152Z,49.02
2023-03-06T16:32:13.682Z,48.61
2023-03-06T16:34:41.152Z,48.42
2023-03-06T16:37:13.192Z,48.89
2023-03-06T16:39:43.912Z,48.77
2023-03-06T16:42:13.401Z,48.50
2023-03-06T16:44:40.640Z,49.04
2023-03-06T16:47:11.784Z,49.38
2023-03-06T16:49:39.078Z,49.22
2023-03-06T16:52:06.470Z,49.50
2023-03-06T16:54:37.504Z,49.59
2023-03-06T16:57:04.878Z,49.39
2023-03-06T16:59:31.794Z,50.70
2023-03-06T17:01:58.959Z,50.21
2023-03-06T17:04:27.295Z,50.24
2023-03-06T17:06:54.187Z,50.13
2023-03-06T17:09:21.980Z,50.48
2023-03-06T17:11:49.331Z,50.62
2023-03-06T17:14:41.397Z,51.02
2023-03-06T17:17:09.856Z,50.95
2023-03-06T17:19:38.456Z,51.02
2023-03-06T17:22:05.702Z,51.04
2023-03-06T17:24:33.371Z,51.02
2023-03-06T17:27:01.193Z,51.86
2023-03-06T17:29:29.273Z,51.63
2023-03-06T17:31:57.175Z,51.23
2023-03-06T17:34:25.332Z,51.42
2023-03-06T17:36:56.526Z,50.95
2023-03-06T17:39:23.927Z,51.34
2023-03-06T17:41:52.325Z,52.04
2023-03-06T17:44:21.619Z,51.78
2023-03-06T17:46:49.090Z,52.02
2023-03-06T17:49:17.652Z,53.61
2023-03-06T17:51:45.188Z,53.63
2023-03-06T17:54:14.068Z,54.11
2023-03-06T17:56:43.713Z,53.99
2023-03-06T17:59:11.640Z,54.28
2023-03-06T18:01:38.839Z,54.39
2023-03-06T18:04:06.714Z,53.53
2023-03-06T18:06:34.367Z,54.12
2023-03-06T18:09:05.830Z,54.65
2023-03-06T18:11:34.033Z,55.42
2023-03-06T18:14:01.237Z,56.57
2023-03-06T18:16:28.676Z,56.94
2023-03-06T18:18:57.655Z,56.18
2023-03-06T18:21:25.876Z,56.57
2023-03-06T18:23:58.327Z,56.82
2023-03-06T18:26:28.239Z,56.77
2023-03-06T18:29:00.359Z,57.97
2023-03-06T18:31:34.663Z,57.20
2023-03-06T18:34:07.750Z,57.89
2023-03-06T18:36:37.657Z,57.58
2023-03-06T18:39:13.808Z,57.98
2023-03-06T18:41:43.033Z,57.87
2023-03-06T18:44:15.074Z,57.88
2023-03-06T18:46:45.958Z,58.35
2023-03-06T18:49:15.065Z,56.73
2023-03-06T18:51:44.916Z,56.80
2023-03-06T18:54:12.999Z,56.69
2023-03-06T18:56:40.270Z,57.08
2023-03-06T18:59:13.132Z,56.48
2023-03-06T19:01:44.763Z,55.28
2023-03-06T19:04:13.249Z,55.44
2023-03-06T19:06:44.423Z,55.39
2023-03-06T19:09:11.493Z,55.73
2023-03-06T19:11:39.150Z,55.91
2023-03-06T19:14:11.382Z,56.00
2023-03-06T19:16:39.563Z,56.93
2023-03-06T19:19:07.607Z,56.56
2023-03-06T19:21:35.787Z,57.06
2023-03-06T19:24:05.085Z,57.29
2023-03-06T19:26:35.139Z,58.15
2023-03-06T19:29:06.735Z,58.38
2023-03-06T19:31:34.570Z,58.06
2023-03-06T19:34:02.298Z,58.76
2023-03-06T19:36:33.285Z,58.17
2023-03-06T19:39:04.318Z,59.08
2023-03-06T19:41:31.956Z,59.34
2023-03-06T19:44:01.559Z,59.29
2023-03-06T19:46:32.806Z,59.24
2023-03-06T19:49:02.177Z,58.83
2023-03-06T19:51:55.835Z,59.16
2023-03-06T19:54:25.038Z,59.66
2023-03-06T19:56:53.438Z,59.64
2023-03-06T19:59:52.949Z,59.96
2023-03-06T20:02:20.554Z,60.17
2023-03-06T20:04:49.855Z,59.15
2023-03-06T20:07:17.780Z,59.77
2023-03-06T20:09:47.338Z,59.63
2023-03-06T20:12:17.652Z,59.22
2023-03-06T20:14:45.662Z,59.28
2023-03-06T20:17:13.401Z,59.12
2023-03-06T20:19:41.892Z,58.46
2023-03-06T20:22:10.473Z,58.94
2023-03-06T20:24:39.900Z,58.51
2023-03-06T20:27:08.658Z,58.67
2023-03-06T20:29:38.347Z,59.06
2023-03-06T20:32:05.739Z,58.65
2023-03-06T20:34:33.543Z,58.95
2023-03-06T20:37:01.369Z,58.93
2023-03-06T20:39:33.265Z,59.31
2023-03-06T20:42:01.540Z,58.99
2023-03-06T20:44:30.000Z,59.43
2023-03-06T20:46:57.913Z,59.07
2023-03-06T20:49:27.721Z,59.03
2023-03-06T20:51:59.361Z,58.83
2023-03-06T20:54:27.736Z,57.88
2023-03-06T20:56:56.816Z,58.51
2023-03-06T20:59:24.372Z,58.53
2023-03-06T21:01:54.502Z,57.74
2023-03-06T21:04:23.346Z,58.26
2023-03-06T21:06:53.429Z,57.55
2023-03-06T21:09:20.884Z,58.06
2023-03-06T21:11:49.718Z,57.36
2023-03-06T21:14:41.714Z,57.27
2023-03-06T21:17:13.825Z,57.42
2023-03-06T21:19:41.297Z,57.82
2023-03-06T21:22:10.401Z,57.57
2023-03-06T21:24:37.362Z,57.11
2023-03-06T21:27:04.593Z,57.21
2023-03-06T21:29:31.603Z,56.91
2023-03-06T21:32:03.568Z,56.93
2023-03-06T21:34:34.351Z,57.20
2023-03-06T21:37:01.178Z,57.39
2023-03-06T21:42:20.386Z,57.23
2023-03-06T21:44:47.199Z,57.06
2023-03-06T21:47:14.045Z,57.49
2023-03-06T21:49:41.009Z,58.00
2023-03-06T21:52:08.892Z,57.89
2023-03-06T21:55:00.859Z,58.15
2023-03-06T21:57:27.755Z,57.83
2023-03-06T21:59:54.575Z,57.71
2023-03-06T22:02:21.631Z,57.23
2023-03-06T22:04:54.849Z,57.39
2023-03-06T22:07:21.869Z,57.08
2023-03-06T22:09:51.619Z,57.11
2023-03-06T22:12:20.380Z,57.58
2023-03-06T22:14:47.990Z,56.87
2023-03-06T22:17:14.880Z,58.03
2023-03-06T22:19:41.663Z,58.48
2023-03-06T22:22:10.685Z,58.10
2023-03-06T22:24:37.617Z,58.21
2023-03-06T22:27:05.269Z,58.10
2023-03-06T22:29:32.660Z,58.98
2023-03-06T22:31:59.501Z,58.44
2023-03-06T22:34:26.401Z,58.73
2023-03-06T22:36:53.351Z,58.27
2023-03-06T22:39:20.184Z,57.94
2023-03-06T22:41:47.019Z,58.42
2023-03-06T22:44:19.351Z,58.40
2023-03-06T22:46:46.491Z,58.64
2023-03-06T22:49:14.727Z,58.17
2023-03-06T22:51:41.865Z,58.87
2023-03-06T22:54:09.174Z,58.88
2023-03-06T22:56:35.978Z,58.97
2023-03-06T22:59:03.219Z,58.67
2023-03-06T23:01:32.894Z,58.33
2023-03-06T23:04:02.276Z,58.98
2023-03-06T23:06:35.298Z,58.42
2023-03-06T23:09:17.465Z,60.39
2023-03-06T23:12:03.126Z,59.93
2023-03-06T23:14:48.473Z,59.65
2023-03-06T23:17:34.444Z,59.69
2023-03-06T23:20:19.745Z,59.63
2023-03-06T23:23:05.317Z,60.67
2023-03-06T23:25:44.879Z,59.06
2023-03-06T23:28:12.266Z,60.09
2023-03-06T23:30:40.498Z,58.71
2023-03-06T23:33:09.680Z,59.00
2023-03-06T23:35:37.611Z,59.97
2023-03-06T23:38:05.317Z,59.46
2023-03-06T23:40:33.552Z,60.39
2023-03-06T23:45:56.293Z,59.81
2023-03-06T23:48:23.381Z,60.07
2023-03-06T23:50:50.144Z,59.97
2023-03-06T23:53:18.564Z,60.39
2023-03-06T23:55:48.130Z,60.96
2023-03-06T23:58:16.055Z,60.64
